createdAt,value
2019-05-22T00:00:25.216Z,91.70
2019-05-22T00:02:57.176Z,91.80
2019-05-22T00:05:36.191Z,91.90
2019-05-22T00:08:10.024Z,91.90
2019-05-22T00:10:45.544Z,91.90
2019-05-22T00:13:19.839Z,92.00
2019-05-22T00:15:52.653Z,92.00
2019-05-22T00:18:25.299Z,92.00
2019-05-22T00:20:57.319Z,91.90
2019-05-22T00:23:29.989Z,91.80
2019-05-22T00:26:01.643Z,91.70
2019-05-22T00:28:33.635Z,91.80
2019-05-22T00:31:04.897Z,91.70
2019-05-22T00:33:37.487Z,91.80
2019-05-22T00:36:09.436Z,91.70
2019-05-22T00:38:41.352Z,91.80
2019-05-22T00:41:16.892Z,91.60
2019-05-22T00:43:49.306Z,91.60
2019-05-22T00:46:21.790Z,91.50
2019-05-22T00:48:53.510Z,91.50
2019-05-22T00:51:37.936Z,91.50
2019-05-22T00:54:27.859Z,91.50
2019-05-22T00:57:00.494Z,91.70
2019-05-22T00:59:36.442Z,91.70
2019-05-22T01:02:09.074Z,91.40
2019-05-22T01:04:42.609Z,91.20
2019-05-22T01:07:22.370Z,91.30
2019-05-22T01:10:01.414Z,91.40
2019-05-22T01:12:34.059Z,91.40
2019-05-22T01:15:08.002Z,91.40
2019-05-22T01:17:39.396Z,91.50
2019-05-22T01:20:14.249Z,91.40
2019-05-22T01:22:47.425Z,91.40
2019-05-22T01:25:22.406Z,91.30
2019-05-22T01:27:53.936Z,91.40
2019-05-22T01:30:29.656Z,91.30
2019-05-22T01:33:07.480Z,91.30
2019-05-22T01:35:38.946Z,91.30
2019-05-22T01:38:12.201Z,91.40
2019-05-22T01:41:03.148Z,91.30
2019-05-22T01:43:34.321Z,91.20
2019-05-22T01:46:07.633Z,91.10
2019-05-22T01:48:41.825Z,90.70
2019-05-22T01:51:33.596Z,90.40
2019-05-22T01:54:07.038Z,90.10
2019-05-22T01:56:38.064Z,90.20
2019-05-22T01:59:09.506Z,90.10
2019-05-22T02:01:42.746Z,90.00
2019-05-22T02:04:15.016Z,89.40
2019-05-22T02:06:46.970Z,90.00
2019-05-22T02:09:32.158Z,90.30
2019-05-22T02:12:10.384Z,90.50
2019-05-22T02:14:43.654Z,90.50
2019-05-22T02:17:16.989Z,90.20
2019-05-22T02:19:49.523Z,90.40
2019-05-22T02:22:21.397Z,90.50
2019-05-22T02:24:53.870Z,90.30
2019-05-22T02:27:25.438Z,90.10
2019-05-22T02:29:56.668Z,90.20
2019-05-22T02:32:29.744Z,90.20
2019-05-22T02:35:02.121Z,90.00
2019-05-22T02:37:33.769Z,89.80
2019-05-22T02:40:05.057Z,89.80
2019-05-22T02:42:38.074Z,89.50
2019-05-22T02:45:11.584Z,89.80
2019-05-22T02:47:42.568Z,89.50
2019-05-22T02:50:15.208Z,89.20
2019-05-22T02:52:46.693Z,88.70
2019-05-22T02:55:18.373Z,88.10
2019-05-22T02:57:49.450Z,87.90
2019-05-22T03:00:20.938Z,88.00
2019-05-22T03:02:54.651Z,88.00
2019-05-22T03:05:26.303Z,87.70
2019-05-22T03:07:58.864Z,86.20
2019-05-22T03:10:50.190Z,86.50
2019-05-22T03:13:25.322Z,86.20
2019-05-22T03:15:57.877Z,85.20
2019-05-22T03:18:29.460Z,85.60
2019-05-22T03:21:00.384Z,85.50
2019-05-22T03:23:39.445Z,85.30
2019-05-22T03:26:11.869Z,85.30
2019-05-22T03:28:43.252Z,85.00
2019-05-22T03:31:14.300Z,85.90
2019-05-22T03:33:45.927Z,85.80
2019-05-22T03:36:18.564Z,85.80
2019-05-22T03:38:51.914Z,85.50
2019-05-22T03:41:23.890Z,85.20
2019-05-22T03:43:57.274Z,84.30
2019-05-22T03:46:33.757Z,83.80
2019-05-22T03:49:06.105Z,83.60
2019-05-22T03:51:37.530Z,83.40
2019-05-22T03:54:08.905Z,83.10
2019-05-22T03:56:42.526Z,82.50
2019-05-22T03:59:14.040Z,82.80
2019-05-22T04:01:47.012Z,82.10
2019-05-22T04:04:21.553Z,82.60
2019-05-22T04:06:53.724Z,81.80
2019-05-22T04:09:26.619Z,82.00
2019-05-22T04:11:58.073Z,82.10
2019-05-22T04:14:36.756Z,82.20
2019-05-22T04:17:09.197Z,82.40
2019-05-22T04:19:49.302Z,82.40
2019-05-22T04:22:15.944Z,82.20
2019-05-22T04:24:47.930Z,82.80
2019-05-22T04:27:19.378Z,82.00
2019-05-22T04:29:51.246Z,81.00
2019-05-22T04:32:32.873Z,80.40
2019-05-22T04:35:05.881Z,79.90
2019-05-22T04:37:37.346Z,79.40
2019-05-22T04:40:25.800Z,78.90
2019-05-22T04:42:57.901Z,78.70
2019-05-22T04:45:30.500Z,78.20
2019-05-22T04:48:06.454Z,78.30
2019-05-22T04:50:38.216Z,77.60
2019-05-22T04:53:09.429Z,77.20
2019-05-22T04:55:40.573Z,77.40
2019-05-22T04:58:16.734Z,78.00
2019-05-22T05:00:47.840Z,77.50
2019-05-22T05:03:20.399Z,76.10
2019-05-22T05:05:55.513Z,75.70
2019-05-22T05:08:26.673Z,75.80
2019-05-22T05:10:59.948Z,76.10
2019-05-22T05:13:31.027Z,76.60
2019-05-22T05:16:02.104Z,76.70
2019-05-22T05:18:33.581Z,75.20
2019-05-22T05:21:04.522Z,75.40
2019-05-22T05:23:35.561Z,75.30
2019-05-22T05:26:06.960Z,76.10
2019-05-22T05:28:40.492Z,76.10
2019-05-22T05:31:11.731Z,75.50
2019-05-22T05:33:45.025Z,75.50
2019-05-22T05:36:16.577Z,74.70
2019-05-22T05:38:49.110Z,74.80
2019-05-22T05:41:20.657Z,73.70
2019-05-22T05:43:51.596Z,72.30
2019-05-22T05:46:23.499Z,71.80
2019-05-22T05:48:56.420Z,71.60
2019-05-22T05:51:30.307Z,71.20
2019-05-22T05:54:05.107Z,72.30
2019-05-22T05:56:38.380Z,72.40
2019-05-22T05:59:10.119Z,72.10
2019-05-22T06:01:42.510Z,72.10
2019-05-22T06:04:13.768Z,71.20
2019-05-22T06:06:53.397Z,70.70
2019-05-22T06:09:26.625Z,69.80
2019-05-22T06:11:59.486Z,70.00
2019-05-22T06:14:33.206Z,69.70
2019-05-22T06:17:13.846Z,69.50
2019-05-22T06:19:47.223Z,69.50
2019-05-22T06:22:18.633Z,68.90
2019-05-22T06:25:02.867Z,68.90
2019-05-22T06:27:37.051Z,69.40
2019-05-22T06:30:22.823Z,69.30
2019-05-22T06:33:13.543Z,69.30
2019-05-22T06:35:48.478Z,69.50
2019-05-22T06:38:24.911Z,69.20
2019-05-22T06:40:56.265Z,69.00
2019-05-22T06:43:34.370Z,69.00
2019-05-22T06:46:24.982Z,69.20
2019-05-22T06:48:58.929Z,69.20
2019-05-22T06:51:29.870Z,68.10
2019-05-22T06:54:00.833Z,67.70
2019-05-22T06:56:32.044Z,67.90
2019-05-22T06:59:02.946Z,68.40
2019-05-22T07:01:34.279Z,67.70
2019-05-22T07:04:05.972Z,67.60
2019-05-22T07:06:37.063Z,67.60
2019-05-22T07:09:10.537Z,66.40
2019-05-22T07:11:42.810Z,67.10
2019-05-22T07:14:14.293Z,67.90
2019-05-22T07:16:45.659Z,68.10
2019-05-22T07:19:18.220Z,68.20
2019-05-22T07:21:51.762Z,68.30
2019-05-22T07:24:24.595Z,67.70
2019-05-22T07:26:57.243Z,68.20
2019-05-22T07:29:28.838Z,68.50
2019-05-22T07:32:02.694Z,68.90
2019-05-22T07:34:33.613Z,69.60
2019-05-22T07:37:04.639Z,68.60
2019-05-22T07:39:35.678Z,69.00
2019-05-22T07:42:06.592Z,69.70
2019-05-22T07:44:37.419Z,69.60
2019-05-22T07:47:10.855Z,70.00
2019-05-22T07:49:43.190Z,71.10
2019-05-22T07:52:14.624Z,70.90
2019-05-22T07:54:45.755Z,70.70
2019-05-22T07:57:19.591Z,69.40
2019-05-22T07:59:50.708Z,69.40
2019-05-22T08:02:24.222Z,68.70
2019-05-22T08:04:55.522Z,68.50
2019-05-22T08:07:27.925Z,68.80
2019-05-22T08:09:59.099Z,69.60
2019-05-22T08:12:33.165Z,69.80
2019-05-22T08:15:04.843Z,69.50
2019-05-22T08:17:35.994Z,69.50
2019-05-22T08:20:08.265Z,70.40
2019-05-22T08:22:40.734Z,71.50
2019-05-22T08:25:11.891Z,72.60
2019-05-22T08:27:44.817Z,73.20
2019-05-22T08:30:16.364Z,73.80
2019-05-22T08:32:47.393Z,74.10
2019-05-22T08:35:18.582Z,74.20
2019-05-22T08:37:52.334Z,74.30
2019-05-22T08:40:43.423Z,74.30
2019-05-22T08:43:14.546Z,74.10
2019-05-22T08:45:45.888Z,73.30
2019-05-22T08:48:17.938Z,73.20
2019-05-22T08:50:49.750Z,73.40
2019-05-22T08:53:21.498Z,73.20
2019-05-22T08:55:52.882Z,73.40
2019-05-22T08:58:24.852Z,73.50
2019-05-22T09:00:56.248Z,73.40
2019-05-22T09:03:27.360Z,73.00
2019-05-22T09:05:58.367Z,71.60
2019-05-22T09:08:29.357Z,71.50
2019-05-22T09:11:00.386Z,71.80
2019-05-22T09:13:31.684Z,72.50
2019-05-22T09:16:03.159Z,72.90
2019-05-22T09:18:34.475Z,72.50
2019-05-22T09:21:05.632Z,72.50
2019-05-22T09:23:37.610Z,72.40
2019-05-22T09:26:09.339Z,72.40
2019-05-22T09:28:40.305Z,74.60
2019-05-22T09:31:11.850Z,74.90
2019-05-22T09:33:42.833Z,75.40
2019-05-22T09:36:14.411Z,75.50
2019-05-22T09:38:45.990Z,75.10
2019-05-22T09:41:16.964Z,75.20
2019-05-22T09:43:48.053Z,75.90
2019-05-22T09:46:19.399Z,76.40
2019-05-22T09:48:50.364Z,77.40
2019-05-22T09:51:21.955Z,77.70
2019-05-22T09:53:54.170Z,78.00
2019-05-22T09:56:25.454Z,78.20
2019-05-22T09:58:56.492Z,78.40
2019-05-22T10:01:27.536Z,78.50
2019-05-22T10:03:59.790Z,78.80
2019-05-22T10:06:30.987Z,78.80
2019-05-22T10:09:01.948Z,79.00
2019-05-22T10:11:33.277Z,79.30
2019-05-22T10:14:05.523Z,79.80
2019-05-22T10:16:36.593Z,80.30
2019-05-22T10:19:08.370Z,80.70
2019-05-22T10:21:39.299Z,81.00
2019-05-22T10:24:10.417Z,80.60
2019-05-22T10:26:41.999Z,80.50
2019-05-22T10:29:13.097Z,81.00
2019-05-22T10:31:43.913Z,81.10
2019-05-22T10:34:15.063Z,81.70
2019-05-22T10:37:08.250Z,81.90
2019-05-22T10:39:41.004Z,81.80
2019-05-22T10:42:12.691Z,81.90
2019-05-22T10:44:44.249Z,81.80
2019-05-22T10:47:18.462Z,82.00
2019-05-22T10:49:48.559Z,82.30
2019-05-22T10:52:20.447Z,82.50
2019-05-22T10:54:51.376Z,82.70
2019-05-22T10:57:23.471Z,82.70
2019-05-22T10:59:54.449Z,82.70
2019-05-22T11:02:25.861Z,82.90
2019-05-22T11:04:56.689Z,83.30
2019-05-22T11:07:28.120Z,83.50
2019-05-22T11:09:59.150Z,83.90
2019-05-22T11:12:30.581Z,83.90
2019-05-22T11:15:01.606Z,83.90
2019-05-22T11:17:32.434Z,84.00
2019-05-22T11:20:03.191Z,84.10
2019-05-22T11:22:35.500Z,84.20
2019-05-22T11:25:12.400Z,84.00
2019-05-22T11:27:43.394Z,84.20
2019-05-22T11:30:15.306Z,84.20
2019-05-22T11:32:46.870Z,84.40
2019-05-22T11:35:20.188Z,85.40
2019-05-22T11:37:51.336Z,85.90
2019-05-22T11:40:23.335Z,86.30
2019-05-22T11:42:55.526Z,86.80
2019-05-22T11:45:26.904Z,82.50
2019-05-22T11:47:58.605Z,79.50
2019-05-22T11:50:30.960Z,77.70
2019-05-22T11:53:02.553Z,77.70
2019-05-22T11:55:44.351Z,77.40
2019-05-22T11:58:06.357Z,78.10
2019-05-22T12:00:37.463Z,78.80
2019-05-22T12:03:09.050Z,79.70
2019-05-22T12:05:40.384Z,81.10
2019-05-22T12:08:13.110Z,82.00
2019-05-22T12:10:44.033Z,83.50
2019-05-22T12:13:15.184Z,84.50
2019-05-22T12:15:46.121Z,87.20
2019-05-22T12:18:19.903Z,89.40
2019-05-22T12:20:50.929Z,90.20
2019-05-22T12:23:22.876Z,90.10
2019-05-22T12:25:53.905Z,90.50
2019-05-22T12:28:25.354Z,90.90
2019-05-22T12:30:59.571Z,91.40
2019-05-22T12:33:31.299Z,92.10
2019-05-22T12:36:04.763Z,92.80
2019-05-22T12:38:36.753Z,92.80
2019-05-22T12:41:09.998Z,92.80
2019-05-22T12:43:44.678Z,93.00
2019-05-22T12:46:14.571Z,93.20
2019-05-22T12:48:46.661Z,93.30
2019-05-22T12:51:18.825Z,93.40
2019-05-22T12:53:50.859Z,93.30
2019-05-22T12:56:21.791Z,93.60
2019-05-22T12:58:55.337Z,93.40
2019-05-22T13:01:26.468Z,93.30
2019-05-22T13:03:59.183Z,93.60
2019-05-22T13:06:30.620Z,93.50
2019-05-22T13:09:03.889Z,93.60
2019-05-22T13:11:35.817Z,93.90
2019-05-22T13:14:08.286Z,94.10
2019-05-22T13:16:47.358Z,93.90
2019-05-22T13:19:14.836Z,94.30
2019-05-22T13:21:47.566Z,94.20
2019-05-22T13:24:21.394Z,94.10
2019-05-22T13:26:54.320Z,94.30
2019-05-22T13:29:27.019Z,94.20
2019-05-22T13:31:58.931Z,93.90
2019-05-22T13:34:34.064Z,93.80
2019-05-22T13:37:08.063Z,94.10
2019-05-22T13:39:40.704Z,94.30
2019-05-22T13:42:13.607Z,94.50
2019-05-22T13:44:44.873Z,94.00
2019-05-22T13:47:17.626Z,93.80
2019-05-22T13:49:50.418Z,93.70
2019-05-22T13:52:21.407Z,93.60
2019-05-22T13:54:53.980Z,93.70
2019-05-22T13:57:26.869Z,93.60
2019-05-22T14:00:00.109Z,93.60
2019-05-22T14:02:31.084Z,93.40
2019-05-22T14:05:03.716Z,93.30
2019-05-22T14:07:35.886Z,93.40
2019-05-22T14:10:09.388Z,93.60
2019-05-22T14:12:41.654Z,93.00
2019-05-22T14:15:13.341Z,92.90
2019-05-22T14:17:45.784Z,93.00
2019-05-22T14:20:18.549Z,92.80
2019-05-22T14:22:49.706Z,92.70
2019-05-22T14:25:22.492Z,92.40
2019-05-22T14:27:53.971Z,92.30
2019-05-22T14:30:28.854Z,92.00
2019-05-22T14:33:05.010Z,92.50
2019-05-22T14:35:47.620Z,93.00
2019-05-22T14:38:11.618Z,92.70
2019-05-22T14:40:43.095Z,92.70
2019-05-22T14:43:15.846Z,92.70
2019-05-22T14:45:47.716Z,93.20
2019-05-22T14:48:19.067Z,93.20
2019-05-22T14:50:52.269Z,93.00
2019-05-22T14:53:25.521Z,92.80
2019-05-22T14:55:59.991Z,92.70
2019-05-22T14:58:32.578Z,92.60
2019-05-22T15:01:04.438Z,92.50
2019-05-22T15:03:36.907Z,92.40
2019-05-22T15:06:10.451Z,92.50
2019-05-22T15:08:43.028Z,92.50
2019-05-22T15:11:17.374Z,92.80
2019-05-22T15:13:49.274Z,92.70
2019-05-22T15:16:20.847Z,92.60
2019-05-22T15:18:53.220Z,92.60
2019-05-22T15:21:25.371Z,92.90
2019-05-22T15:23:59.908Z,92.60
2019-05-22T15:26:32.529Z,92.70
2019-05-22T15:29:03.572Z,92.80
2019-05-22T15:31:34.844Z,92.80
2019-05-22T15:34:18.345Z,92.90
2019-05-22T15:37:02.732Z,93.40
2019-05-22T15:39:38.170Z,93.10
2019-05-22T15:42:10.402Z,92.40
2019-05-22T15:44:44.305Z,92.50
2019-05-22T15:47:15.782Z,92.60
2019-05-22T15:49:47.541Z,92.80
2019-05-22T15:52:19.373Z,93.20
2019-05-22T15:54:53.401Z,92.90
2019-05-22T15:57:26.189Z,93.30
2019-05-22T15:59:58.487Z,93.30
2019-05-22T16:02:30.344Z,93.10
2019-05-22T16:05:02.564Z,93.20
2019-05-22T16:07:34.408Z,93.10
2019-05-22T16:10:06.613Z,93.00
2019-05-22T16:12:38.647Z,92.80
2019-05-22T16:15:11.945Z,92.70
2019-05-22T16:17:45.915Z,92.60
2019-05-22T16:20:18.521Z,92.60
2019-05-22T16:22:49.892Z,92.60
2019-05-22T16:25:23.384Z,92.50
2019-05-22T16:27:56.127Z,92.40
2019-05-22T16:30:29.852Z,92.40
2019-05-22T16:33:01.259Z,92.50
2019-05-22T16:35:32.558Z,92.60
2019-05-22T16:38:05.864Z,92.60
2019-05-22T16:40:38.134Z,92.60
2019-05-22T16:43:10.717Z,93.10
2019-05-22T16:45:41.686Z,92.80
2019-05-22T16:48:27.733Z,92.90
2019-05-22T16:50:47.590Z,93.50
2019-05-22T16:53:20.961Z,93.20
2019-05-22T16:55:52.427Z,92.90
2019-05-22T16:58:24.820Z,92.90
2019-05-22T17:00:57.306Z,92.90
2019-05-22T17:03:29.993Z,92.70
2019-05-22T17:06:01.612Z,92.60
2019-05-22T17:08:33.602Z,92.50
2019-05-22T17:11:06.684Z,92.60
2019-05-22T17:13:39.877Z,92.70
2019-05-22T17:16:12.210Z,92.80
2019-05-22T17:18:47.431Z,92.80
2019-05-22T17:21:15.855Z,92.90
2019-05-22T17:23:48.346Z,93.10
2019-05-22T17:26:19.617Z,93.20
2019-05-22T17:28:50.734Z,93.20
2019-05-22T17:31:22.288Z,93.40
2019-05-22T17:33:53.516Z,93.30
2019-05-22T17:36:26.901Z,93.20
2019-05-22T17:38:59.261Z,93.10
2019-05-22T17:41:32.276Z,93.10
2019-05-22T17:44:04.709Z,93.10
2019-05-22T17:46:35.949Z,93.30
2019-05-22T17:49:07.316Z,93.30
2019-05-22T17:51:38.141Z,93.40
2019-05-22T17:54:09.862Z,93.50
2019-05-22T17:56:41.371Z,93.40
2019-05-22T17:59:12.944Z,93.40
2019-05-22T18:01:43.865Z,93.50
2019-05-22T18:04:14.792Z,93.70
2019-05-22T18:06:45.807Z,93.20
2019-05-22T18:09:17.244Z,93.40
2019-05-22T18:11:48.343Z,93.40
2019-05-22T18:14:19.471Z,93.40
2019-05-22T18:16:50.657Z,93.30
2019-05-22T18:19:22.923Z,93.30
2019-05-22T18:21:54.424Z,93.20
2019-05-22T18:24:25.494Z,93.40
2019-05-22T18:26:56.497Z,93.50
2019-05-22T18:29:27.690Z,93.50
2019-05-22T18:31:59.374Z,93.60
2019-05-22T18:34:30.439Z,93.80
2019-05-22T18:37:01.609Z,93.90
2019-05-22T18:39:33.599Z,93.80
2019-05-22T18:42:04.557Z,93.80
2019-05-22T18:44:36.213Z,93.80
2019-05-22T18:47:07.343Z,94.00
2019-05-22T18:49:38.280Z,94.40
2019-05-22T18:52:11.039Z,94.00
2019-05-22T18:54:41.980Z,94.40
2019-05-22T18:57:13.019Z,94.00
2019-05-22T18:59:44.643Z,94.10
2019-05-22T19:02:16.094Z,94.10
2019-05-22T19:04:47.211Z,94.00
2019-05-22T19:07:18.238Z,94.00
2019-05-22T19:09:49.159Z,93.90
2019-05-22T19:12:20.425Z,93.80
2019-05-22T19:14:52.075Z,93.80
2019-05-22T19:17:23.845Z,93.80
2019-05-22T19:19:55.068Z,93.90
2019-05-22T19:22:25.866Z,93.80
2019-05-22T19:24:56.937Z,93.60
2019-05-22T19:27:27.964Z,93.50
2019-05-22T19:29:58.807Z,93.50
2019-05-22T19:32:29.728Z,93.50
2019-05-22T19:35:00.731Z,93.60
2019-05-22T19:37:31.970Z,93.80
2019-05-22T19:40:03.463Z,93.90
2019-05-22T19:42:34.668Z,94.00
2019-05-22T19:45:07.263Z,94.10
2019-05-22T19:47:38.971Z,94.10
2019-05-22T19:50:22.756Z,94.10
2019-05-22T19:52:45.288Z,94.20
2019-05-22T19:55:18.262Z,94.20
2019-05-22T19:57:49.435Z,94.20
2019-05-22T20:00:21.426Z,94.20
2019-05-22T20:02:52.601Z,94.10
2019-05-22T20:05:25.326Z,94.20
2019-05-22T20:07:56.951Z,94.30
2019-05-22T20:10:28.113Z,94.40
2019-05-22T20:13:00.123Z,94.60
2019-05-22T20:15:31.435Z,94.70
2019-05-22T20:18:03.188Z,95.00
2019-05-22T20:20:34.403Z,94.90
2019-05-22T20:23:05.356Z,94.80
2019-05-22T20:25:37.089Z,94.80
2019-05-22T20:28:09.267Z,94.60
2019-05-22T20:30:40.661Z,94.50
2019-05-22T20:33:12.670Z,94.50
2019-05-22T20:35:43.989Z,94.40
2019-05-22T20:38:15.032Z,94.40
2019-05-22T20:40:45.824Z,94.50
2019-05-22T20:43:18.144Z,94.60
2019-05-22T20:45:50.429Z,94.50
2019-05-22T20:48:28.143Z,94.50
2019-05-22T20:50:59.913Z,94.40
2019-05-22T20:53:32.197Z,94.20
2019-05-22T20:56:03.472Z,94.10
2019-05-22T20:58:35.007Z,94.30
2019-05-22T21:01:09.153Z,94.30
2019-05-22T21:06:30.115Z,94.50
2019-05-22T21:09:01.281Z,94.40
2019-05-22T21:11:33.484Z,94.50
2019-05-22T21:14:05.850Z,94.50
2019-05-22T21:16:37.185Z,94.60
2019-05-22T21:19:09.394Z,94.70
2019-05-22T21:21:40.615Z,94.90
2019-05-22T21:24:12.679Z,95.10
2019-05-22T21:26:45.225Z,95.10
2019-05-22T21:29:17.401Z,95.00
2019-05-22T21:31:49.489Z,95.10
2019-05-22T21:34:21.396Z,95.20
2019-05-22T21:36:52.643Z,95.20
2019-05-22T21:39:23.968Z,95.40
2019-05-22T21:41:55.704Z,95.50
2019-05-22T21:44:26.810Z,95.50
2019-05-22T21:46:58.026Z,95.50
2019-05-22T21:49:31.183Z,95.40
2019-05-22T21:52:03.186Z,95.40
2019-05-22T21:54:34.744Z,95.30
2019-05-22T21:57:07.152Z,95.30
2019-05-22T21:59:38.522Z,95.30
2019-05-22T22:02:14.935Z,95.30
2019-05-22T22:04:46.910Z,95.10
2019-05-22T22:07:18.198Z,95.10
2019-05-22T22:09:50.451Z,95.10
2019-05-22T22:12:24.280Z,95.20
2019-05-22T22:14:55.407Z,95.20
2019-05-22T22:17:28.126Z,95.20
2019-05-22T22:19:59.970Z,95.20
2019-05-22T22:22:32.049Z,95.20
2019-05-22T22:25:03.514Z,95.30
2019-05-22T22:27:35.304Z,95.30
2019-05-22T22:30:12.606Z,95.80
2019-05-22T22:32:44.398Z,95.50
2019-05-22T22:35:17.793Z,95.60
2019-05-22T22:37:49.195Z,95.70
2019-05-22T22:40:24.010Z,95.90
2019-05-22T22:42:55.970Z,95.90
2019-05-22T22:45:30.920Z,96.10
2019-05-22T22:48:03.201Z,96.00
2019-05-22T22:50:36.085Z,96.00
2019-05-22T22:53:09.319Z,96.00
2019-05-22T22:55:41.729Z,95.90
2019-05-22T22:58:17.227Z,96.00
2019-05-22T23:00:47.923Z,95.90
2019-05-22T23:03:25.859Z,95.90
2019-05-22T23:05:58.508Z,95.90
2019-05-22T23:08:32.336Z,95.70
2019-05-22T23:11:04.971Z,96.00
2019-05-22T23:13:36.866Z,95.50
2019-05-22T23:16:09.449Z,95.50
2019-05-22T23:18:47.107Z,95.50
2019-05-22T23:21:17.930Z,95.30
2019-05-22T23:23:47.349Z,95.20
2019-05-22T23:26:19.281Z,95.20
2019-05-22T23:28:50.114Z,95.50
2019-05-22T23:31:22.350Z,95.50
2019-05-22T23:33:53.479Z,95.70
2019-05-22T23:36:25.720Z,95.80
2019-05-22T23:38:56.642Z,95.90
2019-05-22T23:41:29.295Z,95.80
2019-05-22T23:44:01.151Z,95.70
2019-05-22T23:46:33.686Z,95.70
2019-05-22T23:49:05.198Z,95.60
2019-05-22T23:51:36.329Z,95.60
2019-05-22T23:54:07.722Z,95.60
2019-05-22T23:56:40.763Z,95.70
2019-05-22T23:59:13.122Z,95.90
